Leonardo Santos

Chief Scout - Millonarios
28 Oct 2027
Thursday
Process

Personality

Adaptability (15) Ambition (17) Controversy (3) Loyalty (5) Pressure (8) Professionalism (1) Sportsmanship (5) Temperament (14)

Profile

Coaching Style Democratic
License National A
Determination 12
Man Management 7
Motivating 5
Discipline 5
Job Satisfaction
100%
Fatigue
0%
Role Chief Scout
Wage 61.1K p/w
Contract 14.03.2029

Performance

Behaviour Good
Training Effectiveness
61%
Player Development
65%
Injury Prevention
35%
Tactical Implementation
70%

Recent Events

Attended a recruitment meeting now
Recommended a transfer target now
Recommended a transfer target now
Recommended a transfer target now
Recommended a transfer target now
Recommended a transfer target now
Attended a recruitment meeting now
Attended a recruitment meeting now

Currently Monitoring

266
Player Club Status Ability Confidence Watched Last Observed Latest Vote
Ángel Aguayo Sol de America Active 91 / 94 40% 4 26.10.2027 -
Bruno Ribeiro Cortulua Active 84 / 95 40% 1 26.10.2027 -
Nazareno Roselli Defensa y Justicia Active 121 / 112 40% 2 23.10.2027 -
Ignacio Fernández Boston River Active 86 / 95 40% 2 22.10.2027 -
Luis Otávio Colorado Rapids Active 111 / 124 40% 3 22.10.2027 -
Joel Ezra Enyimba Active 93 / 91 40% 5 19.10.2027 -
Diego Vargas San Marcos de Arica Active 88 / 92 40% 1 19.10.2027 -
Esteban de Lima Tacuarembo Active 87 / 104 40% 2 18.10.2027 -
Ricky Atletico Venezuela Active 106 / 96 40% 3 18.10.2027 -
Tyson Pearce St. Louis CITY SC Active 98 / 105 40% 2 16.10.2027 -
Gift Udoh Ikorodu City Active 83 / 99 40% 2 16.10.2027 -
Mauro Carrizo Atlético Tucumán Active 96 / 104 40% 4 14.10.2027 -
Juan Camilo Córdoba Deportivo Pereira Active 83 / 87 40% 2 14.10.2027 -
Mikkel Hope Haugesund Active 81 / 115 40% 1 12.10.2027 -
Matías Gómez Granada Active 125 / 130 40% 1 12.10.2027 -
José Correa Deportivo Tachira Active 96 / 97 40% 1 10.10.2027 -
Álvaro Navoni Tigre Active 95 / 95 40% 1 09.10.2027 -
Martín Jiménez Audax Italiano Active 88 / 100 40% 2 07.10.2027 -
José Movillo O'Higgins Active 75 / 90 40% 1 07.10.2027 -
Agustín Obregón River Plate Active 123 / 120 40% 2 04.10.2027 -
Pablo Aguiar Independiente Active 108 / 116 40% 1 04.10.2027 -
Lucas Camejo River Plate Active 77 / 93 40% 4 03.10.2027 -
Archie Gray Derby County Active 141 / 159 40% 1 03.10.2027 -
Junior Machis Atletico Venezuela Active 72 / 78 40% 1 02.10.2027 -
Olaniyi Saheed Kwara United Active 83 / 95 40% 1 01.10.2027 -
Vitor Reis Manchester City Active 122 / 153 40% 1 01.10.2027 -
Mpho Khethang AS Police Active 89 / 82 40% 3 30.09.2027 -
Juan Morán Godoy Cruz Active 111 / 117 40% 1 27.09.2027 -
Onuorah Onyedika Kun Khalifat Active 79 / 89 40% 1 27.09.2027 -
Axel Tape Bayer Leverkusen Active 131 / 139 40% 2 26.09.2027 -
Alejandro Almaraz Nueva Chicago Active 98 / 115 40% 1 24.09.2027 -
David Valencia Alianza Petrolera Active 115 / 133 40% 2 23.09.2027 -
Teo Rodríguez Pagano River Plate Active 109 / 118 40% 2 22.09.2027 -
Samuel Posada Leones Active 95 / 85 40% 1 18.09.2027 -
Hervin Goyes Deportivo Pasto Active 105 / 116 40% 1 17.09.2027 -
Hosea Michael Remo Stars Active 84 / 100 40% 1 16.09.2027 -
Mbekezeli Mbokazi Chicago Fire Active 117 / 132 40% 1 11.09.2027 -
David Asayure Lokomotivi Active 61 / 89 40% 1 10.09.2027 -
Tiago Gordillo San Miguel Active 98 / 99 40% 1 09.09.2027 -
Juan Diego Perdomo Depor Active 93 / 97 40% 1 08.09.2027 -
Camilo Rey Domenech Boca Juniors Active 113 / 131 40% 1 08.09.2027 -
Sebastián Ramírez Jaguares Active 96 / 120 40% 1 07.09.2027 -
Keagan Tau Ajax Cape Town Active 85 / 115 40% 1 03.08.2027 -
Juan Giménez Celta Active 130 / 119 40% 1 03.08.2027 -
Darryl Bakola Padova Active 110 / 130 40% 1 02.08.2027 -
Jonathan Marulanda Leones Active 107 / 113 51% 1 19.07.2027 -
Bernardo Lima Porto Active 104 / 116 40% 1 19.07.2027 -
Jofre Torrents Ajax Active 139 / 140 40% 1 19.07.2027 -
Gonçalo Oliveira Benfica Active 106 / 107 40% 1 12.07.2027 -
Caleb Yirenkyi Coventry City Active 127 / 136 40% 1 12.07.2027 -
Christ Inao Oulaï Fiorentina Active 121 / 150 40% 1 05.07.2027 -
Leandro Martins Benfica Active 100 / 99 40% 1 05.07.2027 -
Giacomo Raspadori Atalanta Active 136 / 154 40% 1 28.06.2027 -
Aune Heggebø West Bromwich Albion Lost 125 / 135 40% 1 14.06.2027 -
Pedro de la Vega FC Dallas Active 133 / 134 66% 1 01.06.2027 Approve
Kyle Wootton Stockport County Active 121 / 109 40% 1 01.06.2027 -
Elijah Adebayo Luton Town Active 116 / 119 40% 1 01.06.2027 -
Tommy Conway Middlesbrough Active 147 / 128 40% 1 31.05.2027 -
Max Bird Birmingham Active 128 / 121 40% 6 30.05.2027 -
Noah Sadiki Sunderland Active 161 / 142 40% 4 30.05.2027 -
Guille Rosas Gijón Active 141 / 127 40% 1 29.05.2027 -
Nat Phillips West Bromwich Albion Active 134 / 129 40% 1 29.05.2027 -
Welington Southampton Active 125 / 129 40% 5 28.05.2027 -
Nathan Collins Brentford Active 145 / 154 40% 3 28.05.2027 -
Dara O'Shea Ipswich Town Active 124 / 144 40% 6 27.05.2027 -
Azor Matusiwa Ipswich Town Active 134 / 133 40% 2 27.05.2027 -
Igor Burnley Active 159 / 148 40% 3 26.05.2027 -
Adam Wharton Crystal Palace Active 141 / 153 40% 8 25.05.2027 -
Daniel Iversen Preston Active 123 / 129 40% 1 25.05.2027 -
Yehor Yarmoliuk Brentford Active 144 / 144 40% 4 23.05.2027 -
Anton Stach Leeds United Active 161 / 156 40% 3 22.05.2027 -
Toby Collyer West Bromwich Albion Active 131 / 133 40% 2 21.05.2027 -
Lewis Bate Stockport County Active 130 / 112 40% 1 21.05.2027 -
Sergio Barlocco Trento Active 101 / 125 40% 1 20.05.2027 -
Juanlu Bournemouth Active 139 / 152 40% 2 19.05.2027 -
Adrien Truffert Bournemouth Active 165 / 162 40% 4 16.05.2027 Monitor
Bosun Lawal Stoke City Active 140 / 127 40% 2 16.05.2027 -
Tyler Adams Bournemouth Active 142 / 148 40% 6 15.05.2027 -
Callum Brittain Middlesbrough Active 117 / 122 40% 5 14.05.2027 -
Jacques Ekomié Wrexham Active 141 / 134 40% 2 14.05.2027 -
Justin Bijlow Genoa Active 161 / 138 40% 1 14.05.2027 -
Michele Cerofolini Bari Active 128 / 132 40% 1 14.05.2027 -
Corey Addai Stockport County Active 97 / 114 40% 1 12.05.2027 -
Lukas Jensen Millwall Active 126 / 118 40% 3 10.05.2027 -
Jordan Amissah Burton Albion Active 89 / 115 40% 1 10.05.2027 -
Japhet Tanganga Sheffield United Active 125 / 143 40% 5 08.05.2027 -
Pol Tristán Barnsley Active 113 / 111 40% 1 08.05.2027 -
Francesco D'Alterio Ternana Active 105 / 106 40% 1 08.05.2027 -
Ethan Galbraith Swansea City Active 136 / 126 40% 7 07.05.2027 -
Darlin Yongwa Norwich City Active 127 / 125 40% 1 07.05.2027 -
Milan van Ewijk Mansfield Town Active 115 / 121 40% 2 05.05.2027 -
Xaver Schlager Nottingham Forest Active 153 / 149 40% 3 05.05.2027 -
Egil Selvik Watford Active 136 / 137 40% 2 04.05.2027 -
Maduka Okoye Udinese Active 134 / 130 40% 1 03.05.2027 Needs More Info
James Trafford Leeds United Active 148 / 152 40% 1 03.05.2027 -
Óscar Mingueza Crystal Palace Active 157 / 158 40% 5 01.05.2027 -
Paik Seung-Ho Birmingham Active 118 / 126 40% 2 30.04.2027 -
Williams Manyama SuperSport United Active 106 / 114 40% 4 29.04.2027 -
Zach Hemming Chesterfield Active 107 / 103 40% 2 29.04.2027 -
Elia Boseggia Novara Active 112 / 111 40% 1 29.04.2027 -
Edoardo Bove Watford Active 122 / 143 40% 1 29.04.2027 -
Teden Mengi Luton Town Active 122 / 124 40% 1 29.04.2027 -
Derry Murkin Derby County Active 116 / 138 40% 3 27.04.2027 -
Jacob Greaves Ipswich Town Active 121 / 123 40% 1 25.04.2027 -
Florentino Luís Ipswich Town Active 137 / 141 40% 2 22.04.2027 -
Rubén Duarte Legia Active 115 / 128 40% 6 20.04.2027 -
Radek Vítek Middlesbrough Active 119 / 141 40% 1 20.04.2027 -
Shea Charles Southampton Active 153 / 135 40% 6 18.04.2027 -
Saša Lukić Ipswich Town Active 145 / 150 40% 3 18.04.2027 -
Michael Cooper Sheffield United Active 125 / 135 40% 1 18.04.2027 -
Robin Roefs Sunderland Active 153 / 156 40% 1 15.04.2027 -
Ross McCrorie Bristol City Active 116 / 127 40% 3 13.04.2027 -
Aaron Hickey Brentford Active 152 / 137 40% 2 13.04.2027 -
Harry Clarke Preston Active 117 / 129 40% 3 12.04.2027 -
Kenny Tete Fulham Active 127 / 141 40% 2 12.04.2027 -
Anel Ahmedhodžić Burnley Active 136 / 146 40% 3 10.04.2027 -
Kristoffer Lund Birmingham Active 134 / 135 40% 2 09.04.2027 -
Josh Tymon Swansea City Active 142 / 122 40% 1 09.04.2027 -
Adam Randell Bristol City Active 119 / 129 40% 1 08.04.2027 -
Murillo Nottingham Forest Active 135 / 159 40% 1 08.04.2027 -
Nordi Mukiele Sunderland Active 131 / 153 40% 4 07.04.2027 -
Di'Shon Bernard Sheffield Wednesday Active 120 / 129 40% 1 04.04.2027 -
Atsuki Ito Bolton Wanderers Active 110 / 120 40% 2 01.04.2027 -
Ryan Sessegnon Fulham Active 157 / 142 40% 3 31.03.2027 -
Ousmane Diomande Nottingham Forest Active 152 / 164 40% 1 30.03.2027 -
Daniel Muñoz Nottingham Forest Active 167 / 136 40% 2 26.03.2027 -
Quinten Timber Crystal Palace Active 160 / 162 40% 4 24.03.2027 -
Sidny Lopes Cabral Trabzonspor Active 123 / 130 40% 1 23.03.2027 -
Pelle Mattsson Norwich City Active 120 / 130 40% 3 20.03.2027 -
Josh Edwards Charlton Athletic Active 108 / 124 40% 1 20.03.2027 -
Callum Doyle Wrexham Active 136 / 142 40% 2 18.03.2027 -
Nuno Tavares Lazio Active 148 / 143 40% 3 15.03.2027 -
Christian Krasnodar Active 126 / 132 40% 6 12.03.2027 -
Lewis Ferguson Bologna Active 138 / 144 40% 2 10.03.2027 -
Antonee Robinson Fulham Active 137 / 160 40% 2 05.03.2027 -
Israel Reyes CSKA Moscow Active 142 / 139 40% 5 04.03.2027 -
Joachim Andersen Fulham Active 130 / 153 40% 1 28.02.2027 -
Aidan Morris Middlesbrough Active 137 / 141 40% 2 27.02.2027 -
Rob Atkinson Bristol City Active 110 / 119 40% 3 25.02.2027 -
Jordan Lotomba Bloemfontein Celtic Active 108 / 130 40% 1 24.02.2027 -
Takehiro Tomiyasu Crystal Palace Active 130 / 142 40% 2 23.02.2027 -
Thalente Mbatha Orlando Pirates Active 136 / 116 40% 1 23.02.2027 -
Nicolás Fernández Mercau Shakhtar Active 134 / 132 40% 2 12.02.2027 -
Alessandro Buongiorno Sassuolo Active 172 / 151 40% 2 01.02.2027 -
Toti Wolverhampton Active 137 / 120 40% 1 28.01.2027 -
Tomás Ribeiro Cultural Leonesa Active 112 / 118 40% 1 28.01.2027 -
Jack Currie Oxford United Active 109 / 129 40% 1 28.01.2027 -
Lewis Cook Bournemouth Active 147 / 141 40% 1 26.01.2027 -
Gustavo Mantuan Zenit Active 121 / 137 40% 1 15.01.2027 -
Lewis Gibson Preston Active 132 / 116 40% 1 13.01.2027 -
Brian De Keersmaecker Oxford United Active 127 / 113 40% 1 09.01.2027 -
Yacine Adli Al-Shabab Active 123 / 130 40% 1 09.01.2027 -
Hamza Choudhury Leicester City Active 134 / 138 40% 1 07.01.2027 -
Oliver Skipp Leicester City Active 139 / 134 40% 1 04.01.2027 -
Santiago González Tigre Active 116 / 120 40% 2 31.12.2026 -
Lucas Souto Defensa y Justicia Active 114 / 120 40% 1 31.12.2026 -
Lukáš Červ Viktoria Plzen Active 139 / 128 40% 2 29.12.2026 -
Damián Fernández Defensa y Justicia Active 117 / 134 40% 1 14.12.2026 -
Ryan Christie Bournemouth Active 156 / 152 40% 1 14.12.2026 -
Francisco Álvarez Argentinos Juniors Active 115 / 119 40% 1 07.12.2026 -
Guilherme Ankaragucu Active 119 / 113 40% 1 06.12.2026 -
Bamba Dieng Crvena Zvezda Active 131 / 123 40% 1 05.12.2026 -
Leonardo Pico Fortaleza CEIF Active 112 / 110 51% 1 04.12.2026 -
Jhonatan Candia Barracas Central Active 114 / 116 40% 1 02.12.2026 -
Luiz Henrique West Ham United Negotiating 142 / 143 68% 1 01.12.2026 Approve
Erick Sánchez OGC Nice Active 139 / 139 66% 1 01.12.2026 Approve
Roberto Alvarado Monaco Active 139 / 139 66% 1 01.12.2026 Approve
Stanislav Agkatsev Sunderland Negotiating 132 / 133 66% 1 01.12.2026 Approve
Marquinhos Spartak Moscow Active 148 / 134 40% 1 30.11.2026 -
Jaminton Campaz Rosario Central Active 126 / 134 40% 1 30.11.2026 -
Joe Gelhardt Hull City Active 135 / 140 40% 1 28.11.2026 -
Romelu Castagne KV Oostende Active 144 / 123 40% 3 27.11.2026 Monitor
Julián Quiñones Lokomotiv Moscow Active 151 / 135 40% 1 27.11.2026 Needs More Info
Youssef En-Nesyri Al-Ittihad Active 149 / 129 40% 5 26.11.2026 -
Luciano Gondou CSKA Moscow Active 149 / 124 40% 2 26.11.2026 -
Kerem Aktürkoğlu Fenerbahce Active 143 / 141 40% 5 25.11.2026 -
Álvaro Rodríguez Bournemouth Active 123 / 148 40% 1 25.11.2026 -
Yusuke Matsuo Esteghlal Active 113 / 137 40% 1 24.11.2026 -
Razvan Balasa Crvena Zvezda Negotiating 158 / 136 40% 7 23.11.2026 -
Zian Flemming Ipswich Town Active 134 / 129 40% 1 23.11.2026 -
Kasey McAteer Ipswich Town Active 136 / 132 40% 1 23.11.2026 -
Diego Rossi Monterrey Active 148 / 139 40% 2 21.11.2026 -
Nicolò Tresoldi Club Brugge Active 128 / 126 40% 3 21.11.2026 -
Federico Viñas Toluca Active 118 / 133 40% 1 18.11.2026 -
Mattia Felici Cagliari Active 141 / 133 40% 1 18.11.2026 -
Jorge Sánchez Atlas Active 140 / 135 40% 1 17.11.2026 -
Ozziel Herrera Tigres Active 134 / 122 40% 3 16.11.2026 -
Álvaro Angulo Pumas UNAM Active 125 / 134 40% 2 14.11.2026 -
Juan Pablo Domínguez Leon Active 130 / 132 40% 1 14.11.2026 -
Joaquim Tigres Active 135 / 123 40% 1 14.11.2026 -
Luka Kurtovic NK Domzale Active 118 / 138 40% 1 12.11.2026 -
Domagoj Drožđek Tractor Active 112 / 111 40% 1 12.11.2026 -
Carlos Rodríguez Cruz Azul Active 142 / 144 40% 2 11.11.2026 -
Nahuel Tenaglia Tigres Active 140 / 138 40% 2 11.11.2026 -
Erick Reyes Toluca Active 149 / 135 40% 2 10.11.2026 -
Petar Musa Adana Demirspor Active 151 / 124 40% 3 08.11.2026 -
Gastón Lodico Racing Club Active 124 / 125 40% 2 08.11.2026 -
Ola Brynhildsen Bodo/Glimt Active 114 / 122 40% 2 08.11.2026 -
Brian Rodríguez Club America Active 127 / 120 40% 1 07.11.2026 -
Lewis Morgan SuperSport United Active 121 / 126 40% 2 05.11.2026 -
Oleksii Hutsuliak Polissia Active 121 / 117 40% 1 04.11.2026 -
Tiago Palacios Estudiantes Active 126 / 136 40% 1 03.11.2026 -
Breel Embolo Atlanta United FC Active 134 / 131 40% 3 01.11.2026 -
Hany Mukhtar Spezia Active 149 / 141 40% 3 31.10.2026 -
Rafiu Durosinmi Racing Genk Active 138 / 141 40% 1 30.10.2026 -
Oussama Idrissi Pachuca Active 138 / 134 40% 2 29.10.2026 -
Jeremy Márquez Cruz Azul Active 128 / 127 40% 1 29.10.2026 -
Alexey Miranchuk St. Gallen Active 129 / 133 40% 3 25.10.2026 -
Morgan Whittaker Middlesbrough Active 112 / 117 40% 1 24.10.2026 -
Oli McBurnie Hull City Active 115 / 125 40% 1 22.10.2026 -
Orbelín Pineda Monterrey Active 149 / 135 40% 3 21.10.2026 -
Felipe Augusto Zenit Active 134 / 124 40% 4 21.10.2026 -
Soufiane Rahimi Guadalajara Active 149 / 141 40% 1 21.10.2026 -
Aarón Molinas Defensa y Justicia Active 127 / 130 40% 1 21.10.2026 -
Jesús Angulo Tigres Active 146 / 137 40% 3 20.10.2026 -
Alejandro Zendejas Club America Active 141 / 142 40% 1 19.10.2026 -
Manfred Ugalde Spartak Moscow Active 116 / 139 40% 2 18.10.2026 -
Ramón Juárez Club America Active 135 / 136 40% 1 18.10.2026 -
Salvador Reyes Leon Active 122 / 121 40% 1 17.10.2026 -
Everton Bala Levski Active 117 / 134 40% 1 15.10.2026 -
Agustín Palavecino Cruz Azul Active 136 / 139 40% 3 14.10.2026 -
Matías Zaracho Racing Club Active 114 / 128 40% 1 14.10.2026 -
Fernando Valenzuela Queretaro Active 132 / 131 40% 2 11.10.2026 -
Callum O'Hare Sheffield United Active 149 / 127 40% 1 09.10.2026 -
Vicente Poggi Godoy Cruz Active 134 / 129 40% 1 08.10.2026 -
Gabriel Neves Estudiantes Active 132 / 118 40% 1 08.10.2026 -
Franco Díaz Temperley Active 135 / 115 40% 1 07.10.2026 -
Santiago Longo Belgrano Active 114 / 120 40% 2 04.10.2026 -
Nicolás Tripichio San Lorenzo Active 114 / 123 40% 1 04.10.2026 -
Gift Hlatshwayo Free State Stars Active 90 / 118 40% 1 04.10.2026 -
Cho Gue-Sung FC Midtjylland Active 121 / 125 40% 1 04.10.2026 -
Chuchu Ramírez Nacional Active 119 / 134 40% 1 04.10.2026 -
Karim Konaté Red Bull Salzburg Active 131 / 149 40% 2 03.10.2026 -
Myrto Uzuni Austin FC Active 144 / 129 40% 1 03.10.2026 -
Wessam Abou Ali Columbus Crew Active 136 / 136 40% 1 01.10.2026 -
Emiliano Márquez Central Espanol Active 110 / 101 40% 1 28.09.2026 -
Alexandr Sobolev Zenit Active 129 / 128 40% 2 24.09.2026 -
Víctor Guzmán Toluca Active 116 / 124 40% 1 24.09.2026 -
Ryan Gauld Vancouver Whitecaps Active 139 / 142 40% 2 22.09.2026 -
Kein Sato FC Tokyo Active 137 / 127 40% 1 20.09.2026 -
Jesús Ricardo Angulo Toluca Active 134 / 126 40% 2 19.09.2026 -
Jonathan Bamba Chicago Fire Active 124 / 126 40% 1 13.09.2026 -
Brian Gutiérrez Guadalajara Active 120 / 129 40% 1 12.09.2026 -
Luís Esteves Atlas Active 116 / 132 40% 1 12.09.2026 -
Jesus Ferreira Seattle Sounders Active 133 / 132 40% 1 11.09.2026 -
Takuma Asano Sanfrecce Hiroshima Active 139 / 131 40% 2 09.09.2026 -
Luis Romo Guadalajara Active 143 / 142 40% 2 07.09.2026 -
Víctor Dávila Club America Active 120 / 135 40% 1 06.09.2026 -
Ifeanyi Emmanuel Niger Tornadoes Active 104 / 108 40% 1 03.09.2026 -
Dominik Fiola Haladas Active 110 / 138 40% 1 01.09.2026 -
Ernest Muçi Trabzonspor Active 128 / 126 40% 1 01.09.2026 -
Ivan Toney Al-Ahli Active 147 / 153 40% 1 30.08.2026 -
Carlos Rotondi Cruz Azul Active 122 / 136 40% 1 29.08.2026 -
Adnan Courtois KV Oostende Active 116 / 127 40% 1 25.08.2026 -
Clayton Olympiacos Active 141 / 136 40% 1 22.08.2026 -
Leonardo Borja La Equidad Active 135 / 142 40% 1 21.08.2026 -
Tomás Ahumada Audax Italiano Active 116 / 114 40% 1 18.08.2026 -
Musa Barrow Al-Khaleej Active 116 / 135 40% 1 16.08.2026 -
Sam Surridge Nashville SC Active 119 / 123 40% 1 15.08.2026 -
Leo Ceara Kashima Antlers Active 118 / 129 40% 1 14.08.2026 -
Barış Alper Yılmaz Galatasaray Active 164 / 143 40% 1 14.08.2026 -
Sebastián Córdova Pumas UNAM Active 120 / 137 40% 1 12.08.2026 -
Aliou Dieng Valencia Active 133 / 118 40% 1 08.08.2026 -
Erison Kawasaki Frontale Active 118 / 124 40% 1 08.08.2026 -
Luka Jović AEK Active 133 / 126 40% 1 06.08.2026 -
Nacho Vidal Oviedo Active 145 / 124 40% 1 01.08.2026 -